createdAt,value
2022-12-22T00:02:52.426Z,1.80
2022-12-22T00:08:12.480Z,1.70
2022-12-22T00:13:34.262Z,2.15
2022-12-22T00:18:54.161Z,1.77
2022-12-22T00:24:13.809Z,2.00
2022-12-22T00:29:34.390Z,2.30
2022-12-22T00:35:00.302Z,2.15
2022-12-22T00:40:20.927Z,1.80
2022-12-22T00:45:41.415Z,1.80
2022-12-22T00:51:01.576Z,1.70
2022-12-22T00:56:25.685Z,1.80
2022-12-22T01:01:45.792Z,1.52
2022-12-22T01:07:05.923Z,1.60
2022-12-22T01:12:35.672Z,1.30
2022-12-22T01:17:55.576Z,1.50
2022-12-22T01:23:15.605Z,1.67
2022-12-22T01:28:36.304Z,2.00
2022-12-22T01:33:56.186Z,2.30
2022-12-22T01:39:15.940Z,1.90
2022-12-22T01:44:36.982Z,2.25
2022-12-22T01:50:02.226Z,1.98
2022-12-22T01:55:27.796Z,1.85
2022-12-22T02:00:48.154Z,2.10
2022-12-22T02:06:29.451Z,1.95
2022-12-22T02:11:58.511Z,2.40
2022-12-22T02:17:33.974Z,2.20
2022-12-22T02:23:05.190Z,1.73
2022-12-22T02:28:25.403Z,1.70
2022-12-22T02:33:45.549Z,1.85
2022-12-22T02:39:37.903Z,2.20
2022-12-22T02:45:07.830Z,2.83
2022-12-22T02:50:38.661Z,2.15
2022-12-22T02:55:58.967Z,1.90
2022-12-22T03:01:21.678Z,1.90
2022-12-22T03:06:41.693Z,1.85
2022-12-22T03:12:01.615Z,1.98
2022-12-22T03:17:22.051Z,2.10
2022-12-22T03:22:41.744Z,4.80
2022-12-22T03:27:43.135Z,6.25
2022-12-22T03:32:44.537Z,6.03
2022-12-22T03:37:45.930Z,5.65
2022-12-22T03:43:06.065Z,6.07
2022-12-22T03:48:07.487Z,5.95
2022-12-22T03:53:08.952Z,5.35
2022-12-22T03:58:10.361Z,4.40
2022-12-22T04:03:11.991Z,4.38
2022-12-22T04:08:13.561Z,5.38
2022-12-22T04:13:14.949Z,6.15
2022-12-22T04:18:16.356Z,6.65
2022-12-22T04:23:17.765Z,6.63
2022-12-22T04:28:19.240Z,6.80
2022-12-22T04:33:20.689Z,5.40
2022-12-22T04:38:22.108Z,2.80
2022-12-22T04:43:23.501Z,2.60
2022-12-22T04:48:26.797Z,2.83
2022-12-22T04:53:30.053Z,3.05
2022-12-22T04:58:32.543Z,3.35
2022-12-22T05:03:34.021Z,3.65
2022-12-22T05:08:35.685Z,3.30
2022-12-22T05:13:37.505Z,3.67
2022-12-22T05:18:40.076Z,3.38
2022-12-22T05:23:42.417Z,3.40
2022-12-22T05:28:46.197Z,2.67
2022-12-22T05:33:48.184Z,2.60
2022-12-22T05:38:49.627Z,2.63
2022-12-22T05:43:51.022Z,3.05
2022-12-22T05:48:52.418Z,2.60
2022-12-22T05:53:53.847Z,2.67
2022-12-22T05:58:55.340Z,2.00
2022-12-22T06:04:00.418Z,2.22
2022-12-22T06:09:02.252Z,2.55
2022-12-22T06:14:03.649Z,2.13
2022-12-22T06:19:05.185Z,1.80
2022-12-22T06:24:07.058Z,2.10
2022-12-22T06:29:08.492Z,2.55
2022-12-22T06:34:11.037Z,2.70
2022-12-22T06:39:13.959Z,2.50
2022-12-22T06:49:16.701Z,3.55
2022-12-22T06:54:23.955Z,2.80
2022-12-22T06:59:27.485Z,2.60
2022-12-22T07:04:29.666Z,2.30
2022-12-22T07:09:31.086Z,2.53
2022-12-22T07:14:32.539Z,2.60
2022-12-22T07:19:33.980Z,2.45
2022-12-22T07:24:35.430Z,2.30
2022-12-22T07:29:37.037Z,2.50
2022-12-22T07:34:38.460Z,2.65
2022-12-22T07:39:39.880Z,2.40
2022-12-22T07:44:41.309Z,2.78
2022-12-22T07:50:01.059Z,2.72
2022-12-22T07:55:02.478Z,2.92
2022-12-22T08:00:04.702Z,3.10
2022-12-22T08:05:13.655Z,2.92
2022-12-22T08:10:16.123Z,3.20
2022-12-22T08:15:19.030Z,2.45
2022-12-22T08:26:01.023Z,2.20
2022-12-22T08:31:04.333Z,1.60
2022-12-22T08:36:08.648Z,1.80
2022-12-22T08:41:55.982Z,1.50
2022-12-22T08:47:02.215Z,1.88
2022-12-22T08:52:05.584Z,1.88
2022-12-22T08:57:10.931Z,1.60
2022-12-22T09:02:13.237Z,1.30
2022-12-22T09:07:16.116Z,1.47
2022-12-22T09:12:18.094Z,1.40
2022-12-22T09:17:19.772Z,1.20
2022-12-22T09:22:28.141Z,1.50
2022-12-22T09:27:33.442Z,1.48
2022-12-22T09:32:35.114Z,1.30
2022-12-22T09:37:43.452Z,1.20
2022-12-22T09:42:59.189Z,1.45
2022-12-22T09:48:11.850Z,1.45
2022-12-22T09:53:28.758Z,1.20
2022-12-22T09:58:44.147Z,1.10
2022-12-22T10:04:05.475Z,1.33
2022-12-22T10:09:48.700Z,1.05
2022-12-22T10:14:51.398Z,0.90
2022-12-22T10:19:54.896Z,0.90
2022-12-22T10:24:57.564Z,0.90
2022-12-22T10:37:00.568Z,0.90
2022-12-22T10:42:13.694Z,1.15
2022-12-22T10:53:58.144Z,0.88
2022-12-22T10:59:02.982Z,0.70
2022-12-22T11:04:23.758Z,0.90
2022-12-22T11:09:35.332Z,0.85
2022-12-22T11:14:52.424Z,0.80
2022-12-22T11:20:20.795Z,0.80
2022-12-22T11:25:36.773Z,0.73
2022-12-22T11:30:44.606Z,0.63
2022-12-22T11:36:15.821Z,0.60
2022-12-22T11:41:50.089Z,0.60
2022-12-22T11:46:58.729Z,0.70
2022-12-22T11:52:08.357Z,0.70
2022-12-22T11:57:28.432Z,0.80
2022-12-22T12:02:45.373Z,0.70
2022-12-22T12:08:09.983Z,0.90
2022-12-22T12:14:19.462Z,0.90
2022-12-22T12:19:28.820Z,0.80
2022-12-22T12:24:45.433Z,0.80
2022-12-22T12:30:35.625Z,0.80
2022-12-22T12:35:40.526Z,0.90
2022-12-22T12:40:55.735Z,0.70
2022-12-22T12:45:57.594Z,0.90
2022-12-22T12:50:59.626Z,0.95
2022-12-22T12:56:05.072Z,0.80
2022-12-22T13:01:13.558Z,0.80
2022-12-22T13:06:52.236Z,0.70
2022-12-22T13:12:12.187Z,0.75
2022-12-22T13:17:51.965Z,0.70
2022-12-22T13:22:56.488Z,0.90
2022-12-22T13:28:01.921Z,0.80
2022-12-22T13:33:15.217Z,1.40
2022-12-22T13:38:31.343Z,0.90
2022-12-22T13:43:36.337Z,0.70
2022-12-22T13:48:48.925Z,0.80
2022-12-22T13:54:11.896Z,0.80
2022-12-22T13:59:40.644Z,0.90
2022-12-22T14:05:24.350Z,0.93
2022-12-22T14:10:34.205Z,0.95
2022-12-22T14:15:35.759Z,0.90
2022-12-22T14:20:39.993Z,0.80
2022-12-22T14:25:44.550Z,0.77
2022-12-22T14:30:50.371Z,0.95
2022-12-22T14:35:52.062Z,0.90
2022-12-22T14:40:57.683Z,0.88
2022-12-22T14:46:07.244Z,0.70
2022-12-22T14:51:09.242Z,0.80
2022-12-22T14:56:15.470Z,0.60
2022-12-22T15:01:28.120Z,1.20
2022-12-22T15:06:29.701Z,0.90
2022-12-22T15:11:31.480Z,1.10
2022-12-22T15:16:32.962Z,1.30
2022-12-22T15:21:35.491Z,1.10
2022-12-22T15:26:38.061Z,1.35
2022-12-22T15:31:41.317Z,1.40
2022-12-22T15:36:42.791Z,1.50
2022-12-22T15:41:45.120Z,1.30
2022-12-22T15:46:54.338Z,2.20
2022-12-22T15:52:00.411Z,2.47
2022-12-22T15:57:02.038Z,2.20
2022-12-22T16:02:03.605Z,2.28
2022-12-22T16:07:05.715Z,1.92
2022-12-22T16:12:18.629Z,1.80
2022-12-22T16:17:23.311Z,2.20
2022-12-22T16:22:42.723Z,2.72
2022-12-22T16:27:47.670Z,2.80
2022-12-22T16:32:49.991Z,5.32
2022-12-22T16:37:51.649Z,6.38
2022-12-22T16:48:51.706Z,10.60
2022-12-22T16:53:54.049Z,11.80
2022-12-22T16:58:56.016Z,11.87
2022-12-22T17:04:02.589Z,12.75
2022-12-22T17:09:07.183Z,11.40
2022-12-22T17:14:20.626Z,10.93
2022-12-22T17:19:22.047Z,10.82
2022-12-22T17:24:28.328Z,9.82
2022-12-22T17:29:30.128Z,10.38
2022-12-22T17:34:31.666Z,9.73
2022-12-22T17:39:33.791Z,10.50
2022-12-22T17:44:35.244Z,11.37
2022-12-22T17:49:36.867Z,11.65
2022-12-22T17:54:38.259Z,13.98
2022-12-22T17:59:39.712Z,12.70
2022-12-22T18:04:41.178Z,12.32
2022-12-22T18:09:43.525Z,12.25
2022-12-22T18:14:45.049Z,11.52
2022-12-22T18:19:46.690Z,11.82
2022-12-22T18:24:52.824Z,12.35
2022-12-22T18:29:54.380Z,11.38
2022-12-22T18:34:55.860Z,12.27
2022-12-22T18:39:57.290Z,10.95
2022-12-22T18:44:58.725Z,11.15
2022-12-22T18:50:02.780Z,11.13
2022-12-22T18:55:05.448Z,11.32
2022-12-22T19:00:13.927Z,12.45
2022-12-22T19:05:20.066Z,9.90
2022-12-22T19:10:38.986Z,9.65
2022-12-22T19:15:40.610Z,8.25
2022-12-22T19:20:42.041Z,8.10
2022-12-22T19:25:45.662Z,9.80
2022-12-22T19:30:47.201Z,8.93
2022-12-22T19:35:48.689Z,9.55
2022-12-22T19:40:52.525Z,7.57
2022-12-22T19:45:54.321Z,7.75
2022-12-22T19:50:55.812Z,6.18
2022-12-22T19:55:57.773Z,7.07
2022-12-22T20:00:59.392Z,7.57
2022-12-22T20:06:00.829Z,7.43
2022-12-22T20:11:02.578Z,6.72
2022-12-22T20:16:04.220Z,6.63
2022-12-22T20:21:10.712Z,5.97
2022-12-22T20:26:16.423Z,6.45
2022-12-22T20:31:21.369Z,6.72
2022-12-22T20:36:26.424Z,7.07
2022-12-22T20:41:28.098Z,7.97
2022-12-22T20:46:30.074Z,6.75
2022-12-22T20:51:33.516Z,7.53
2022-12-22T20:56:38.059Z,6.72
2022-12-22T21:01:39.775Z,6.85
2022-12-22T21:06:53.299Z,6.65
2022-12-22T21:11:54.692Z,5.82
2022-12-22T21:16:56.392Z,6.15
2022-12-22T21:21:57.842Z,6.22
2022-12-22T21:26:59.469Z,4.60
2022-12-22T21:32:00.889Z,5.35
2022-12-22T21:37:03.050Z,7.07
2022-12-22T21:42:05.459Z,7.90
2022-12-22T21:47:06.932Z,7.00
2022-12-22T21:52:08.437Z,7.05
2022-12-22T21:57:15.704Z,5.90
2022-12-22T22:02:18.559Z,4.80
2022-12-22T22:12:33.287Z,4.88
2022-12-22T22:17:34.747Z,4.43
2022-12-22T22:22:36.397Z,4.55
2022-12-22T22:27:42.921Z,4.18
2022-12-22T22:32:48.358Z,4.63
2022-12-22T22:37:51.259Z,4.28
2022-12-22T22:42:52.752Z,5.05
2022-12-22T22:47:54.251Z,4.53
2022-12-22T22:52:55.872Z,4.80
2022-12-22T22:57:57.264Z,5.15
2022-12-22T23:03:00.397Z,4.72
2022-12-22T23:08:02.056Z,4.15
2022-12-22T23:13:04.633Z,4.05
2022-12-22T23:18:06.043Z,4.75
2022-12-22T23:23:07.449Z,3.95
2022-12-22T23:28:09.256Z,3.58
2022-12-22T23:33:11.170Z,3.38
2022-12-22T23:38:12.887Z,3.08
2022-12-22T23:43:14.850Z,3.53
2022-12-22T23:48:16.467Z,2.97
2022-12-22T23:53:17.902Z,2.85
2022-12-22T23:58:19.381Z,2.50
